Terminal Aerodrome Forecast
Issued by NWS Upton, NY

Home | Current Version | Previous Version | Text Only | Print | Product List | Glossary On
Versions: 1 2 3 4 5 6 7 8 9 10 11 12 13 14 15 16 17 18 19 20 21 22 23 24 25 26 27 28 29 30
514
FTUS41 KOKX 251122
TAFLGA
TAF
KLGA 251122Z 2512/2612 23008KT P6SM FEW070 BKN150
     FM251400 VRB04KT P6SM SCT070 OVC100
     FM251800 03009KT P6SM OVC035
      TEMPO 2518/2521 6SM -RA BKN025
     FM252100 04011KT 5SM -RA BR OVC012
     FM260100 04010KT 4SM -DZ BR OVC008=

USA.gov is the U.S. government's official web portal to all federal, state and local government web resources and services.